Time;durP1;ratioP1;P1;durP2;ratioP2;P2;SDS_P1;SDS_P2;PMS_P1;PMS_P2;Temp;Humidity;BMP_temperature;BMP_pressure;BME280_temperature;BME280_humidity;BME280_pressure;Samples;Min_cycle;Max_cycle;Signal;HPM_P1;HPM_P2
2022/10/26 00:02:14;;;;;;;73.53;51.38;;;19.20;77.60;;;;;;4955646;28;90645;-50
2022/10/26 00:04:39;;;;;;;72.32;51.22;;;19.20;77.60;;;;;;4947173;28;90822;-52
2022/10/26 00:07:05;;;;;;;72.88;51.42;;;19.20;77.60;;;;;;4946949;28;89893;-53
2022/10/26 00:09:31;;;;;;;72.32;51.25;;;19.20;77.70;;;;;;4945742;28;90080;-53
2022/10/26 00:11:56;;;;;;;72.00;51.47;;;19.20;77.60;;;;;;4955473;28;90738;-55
2022/10/26 00:14:22;;;;;;;73.78;51.63;;;19.20;77.50;;;;;;4941431;28;92331;-49
2022/10/26 00:16:48;;;;;;;73.03;51.35;;;19.20;77.60;;;;;;4948558;28;90315;-52
2022/10/26 00:19:14;;;;;;;72.60;51.42;;;19.20;77.50;;;;;;4954585;28;89973;-51
2022/10/26 00:21:39;;;;;;;73.22;51.47;;;19.20;77.60;;;;;;4937321;28;91198;-51
2022/10/26 00:24:05;;;;;;;72.68;51.53;;;19.20;77.50;;;;;;4945227;28;91132;-52
2022/10/26 00:26:31;;;;;;;73.15;51.47;;;19.20;77.50;;;;;;4953428;28;91910;-51
2022/10/26 00:28:57;;;;;;;73.93;51.15;;;19.20;77.50;;;;;;4944330;28;90415;-52
2022/10/26 00:31:23;;;;;;;73.00;51.42;;;19.20;77.40;;;;;;4943377;28;90138;-53
2022/10/26 00:33:53;;;;;;;72.15;51.65;;;19.20;77.50;;;;;;4951499;28;91660;-52
2022/10/26 00:36:19;;;;;;;74.10;51.65;;;19.20;77.40;;;;;;4951681;28;90190;-52
2022/10/26 00:38:50;;;;;;;72.00;51.53;;;19.20;77.50;;;;;;4948922;28;89093;-53
2022/10/26 00:41:17;;;;;;;72.47;51.45;;;19.20;77.40;;;;;;4939031;28;92923;-53
2022/10/26 00:43:43;;;;;;;73.50;51.40;;;19.20;77.40;;;;;;4937799;28;90182;-53
2022/10/26 00:46:13;;;;;;;73.78;51.42;;;19.20;77.40;;;;;;4946094;28;96414;-54
2022/10/26 00:48:43;;;;;;;72.57;51.45;;;19.20;77.40;;;;;;4943541;28;89854;-49
2022/10/26 00:51:19;;;;;;;73.55;50.88;;;19.20;77.40;;;;;;4941588;28;94567;-55
2022/10/26 00:53:45;;;;;;;72.57;51.15;;;19.20;77.40;;;;;;4943096;28;90281;-54
2022/10/26 00:56:14;;;;;;;73.55;51.35;;;19.20;77.40;;;;;;4947004;28;90455;-54
2022/10/26 00:58:40;;;;;;;72.45;51.20;;;19.20;77.30;;;;;;4950938;28;90414;-53
2022/10/26 01:01:05;;;;;;;72.53;51.35;;;19.20;77.40;;;;;;4937367;28;91746;-51
2022/10/26 01:03:33;;;;;;;72.35;51.33;;;19.20;77.30;;;;;;4945895;28;90074;-54
2022/10/26 01:05:59;;;;;;;73.68;51.15;;;19.10;77.20;;;;;;4939284;28;90050;-55
2022/10/26 01:08:27;;;;;;;72.30;50.90;;;19.20;77.40;;;;;;4950372;28;90779;-52
2022/10/26 01:10:55;;;;;;;72.63;51.05;;;19.20;77.30;;;;;;4944157;28;91118;-53
2022/10/26 01:13:21;;;;;;;73.30;51.30;;;19.10;77.20;;;;;;4939766;28;90653;-53
2022/10/26 01:16:02;;;;;;;72.25;51.10;;;19.10;77.20;;;;;;4947076;28;89967;-53
2022/10/26 01:19:03;;;;;;;71.72;50.85;;;19.20;77.20;;;;;;4946399;28;90193;-50
2022/10/26 01:21:47;;;;;;;72.60;51.67;;;19.10;77.20;;;;;;4935717;28;92830;-52
2022/10/26 01:24:28;;;;;;;73.13;51.35;;;19.20;77.20;;;;;;4943341;28;90745;-49
2022/10/26 01:27:20;;;;;;;72.72;51.10;;;19.10;77.20;;;;;;4943339;28;90405;-51
2022/10/26 01:30:13;;;;;;;73.10;51.55;;;19.20;77.20;;;;;;4949960;28;89494;-54
2022/10/26 01:32:54;;;;;;;72.80;51.05;;;19.10;77.20;;;;;;4942706;28;90882;-53
2022/10/26 01:35:48;;;;;;;72.35;50.97;;;19.10;77.90;;;;;;4945682;28;91560;-54
2022/10/26 01:38:35;;;;;;;72.28;50.83;;;19.10;77.20;;;;;;4946850;28;91045;-52
2022/10/26 01:41:05;;;;;;;71.65;51.08;;;19.10;77.10;;;;;;4947782;28;90707;-50
2022/10/26 01:43:35;;;;;;;71.63;51.08;;;19.10;77.10;;;;;;4938845;28;92250;-53
2022/10/26 01:46:03;;;;;;;71.80;51.10;;;19.10;77.10;;;;;;4933831;28;91267;-53
2022/10/26 01:48:29;;;;;;;71.70;50.90;;;19.10;77.10;;;;;;4948062;28;90050;-54
2022/10/26 01:50:57;;;;;;;72.05;51.47;;;19.10;77.10;;;;;;4944613;28;90569;-54
2022/10/26 01:53:25;;;;;;;73.07;51.55;;;19.10;77.10;;;;;;4945473;28;90850;-54
2022/10/26 01:55:53;;;;;;;71.43;50.88;;;19.10;77.10;;;;;;4943764;28;90085;-54
2022/10/26 01:58:37;;;;;;;73.03;51.05;;;19.10;77.10;;;;;;4943871;28;95521;-51
2022/10/26 02:01:41;;;;;;;71.90;51.13;;;19.10;77.10;;;;;;4938107;28;91120;-52
2022/10/26 02:04:44;;;;;;;71.57;51.25;;;19.10;77.10;;;;;;4935696;28;93488;-54
2022/10/26 02:07:32;;;;;;;73.38;51.35;;;19.10;77.00;;;;;;4941686;28;95844;-54
2022/10/26 02:10:31;;;;;;;72.95;51.25;;;19.10;77.10;;;;;;4935636;28;89865;-53
2022/10/26 02:13:35;;;;;;;71.85;51.13;;;19.10;77.00;;;;;;4943464;28;89963;-54
2022/10/26 02:16:03;;;;;;;72.15;51.05;;;19.10;77.00;;;;;;4943771;28;92596;-50
2022/10/26 02:19:03;;;;;;;71.88;50.92;;;19.10;77.00;;;;;;4945885;28;90820;-53
2022/10/26 02:21:39;;;;;;;71.97;50.83;;;19.10;77.00;;;;;;4949248;28;90128;-54
2022/10/26 02:24:09;;;;;;;73.50;51.25;;;19.10;77.00;;;;;;4941673;28;89511;-53
2022/10/26 02:26:36;;;;;;;72.47;51.10;;;19.10;77.00;;;;;;4948653;28;96664;-54
2022/10/26 02:29:06;;;;;;;72.63;51.10;;;19.10;76.90;;;;;;4937497;28;97015;-53
2022/10/26 02:31:35;;;;;;;71.83;50.87;;;19.10;77.00;;;;;;4943225;28;91262;-54
2022/10/26 02:34:05;;;;;;;72.68;50.85;;;19.10;77.00;;;;;;4944394;28;91756;-54
2022/10/26 02:36:35;;;;;;;72.55;51.40;;;19.10;76.90;;;;;;4951720;28;93785;-53
2022/10/26 02:39:04;;;;;;;72.32;51.17;;;19.10;76.90;;;;;;4948500;28;92719;-54
2022/10/26 02:41:31;;;;;;;72.38;50.95;;;19.10;77.00;;;;;;4945627;28;90982;-53
2022/10/26 02:44:12;;;;;;;71.82;50.92;;;19.10;76.90;;;;;;4939746;28;92091;-53
2022/10/26 02:46:38;;;;;;;71.60;51.10;;;19.10;76.90;;;;;;4948982;28;90293;-55
2022/10/26 02:49:04;;;;;;;71.70;51.35;;;19.10;76.90;;;;;;4947713;28;91277;-55
2022/10/26 02:51:46;;;;;;;71.95;50.90;;;19.10;76.90;;;;;;4944683;28;90426;-53
2022/10/26 02:54:46;;;;;;;71.93;51.20;;;19.10;76.90;;;;;;4945318;28;90585;-53
2022/10/26 02:57:25;;;;;;;72.07;51.30;;;19.10;76.80;;;;;;4954948;28;90990;-53
2022/10/26 02:59:52;;;;;;;72.65;51.15;;;19.10;76.80;;;;;;4945893;28;91009;-53
2022/10/26 03:02:19;;;;;;;71.28;50.63;;;19.10;76.80;;;;;;4945605;28;90031;-55
2022/10/26 03:04:46;;;;;;;73.45;51.25;;;19.10;76.80;;;;;;4942708;28;89570;-51
2022/10/26 03:07:11;;;;;;;72.47;51.72;;;19.10;76.80;;;;;;4943608;28;91089;-54
2022/10/26 03:09:37;;;;;;;72.57;51.22;;;19.10;76.90;;;;;;4953754;28;91646;-54
2022/10/26 03:12:03;;;;;;;72.43;51.13;;;19.10;76.80;;;;;;4940946;28;91218;-53
2022/10/26 03:14:29;;;;;;;71.60;50.92;;;19.10;77.50;;;;;;4939851;28;89771;-54
2022/10/26 03:16:54;;;;;;;72.70;51.05;;;19.10;76.80;;;;;;4946911;28;93885;-52
2022/10/26 03:19:20;;;;;;;71.90;50.92;;;19.10;76.80;;;;;;4954402;28;90376;-52
2022/10/26 03:21:46;;;;;;;71.75;50.95;;;19.10;76.80;;;;;;4941618;28;90962;-54
2022/10/26 03:24:11;;;;;;;71.45;50.95;;;19.10;76.80;;;;;;4948552;28;90993;-51
2022/10/26 03:26:37;;;;;;;71.43;50.92;;;19.10;76.80;;;;;;4957593;28;90312;-54
2022/10/26 03:29:03;;;;;;;71.57;50.95;;;19.10;76.80;;;;;;4945091;28;91042;-52
2022/10/26 03:31:28;;;;;;;71.05;51.00;;;19.10;76.80;;;;;;4939968;28;92095;-51
2022/10/26 03:33:54;;;;;;;71.57;50.97;;;19.10;76.80;;;;;;4943880;28;90782;-55
2022/10/26 03:36:20;;;;;;;72.28;51.05;;;19.00;76.70;;;;;;4948006;28;92030;-54
2022/10/26 03:38:45;;;;;;;71.88;51.20;;;19.00;76.70;;;;;;4939514;28;89804;-55
2022/10/26 03:41:11;;;;;;;71.60;50.97;;;19.10;76.80;;;;;;4950093;28;90023;-55
2022/10/26 03:43:37;;;;;;;71.78;51.10;;;19.00;76.70;;;;;;4947570;28;89802;-53
2022/10/26 03:46:02;;;;;;;70.95;50.88;;;19.10;76.80;;;;;;4943045;28;90684;-54
2022/10/26 03:48:28;;;;;;;71.85;51.05;;;19.00;76.70;;;;;;4947375;28;90937;-54
2022/10/26 03:50:57;;;;;;;71.72;51.05;;;19.10;76.80;;;;;;4947382;28;91457;-55
2022/10/26 03:53:23;;;;;;;72.38;50.72;;;19.10;76.80;;;;;;4959985;28;89931;-54
2022/10/26 03:55:49;;;;;;;73.05;50.92;;;19.10;76.60;;;;;;4947044;28;92538;-53
2022/10/26 03:58:15;;;;;;;71.43;51.03;;;19.10;76.70;;;;;;4944209;28;95571;-54
2022/10/26 04:00:40;;;;;;;71.82;50.75;;;19.00;76.70;;;;;;4943171;28;91089;-53
2022/10/26 04:03:06;;;;;;;71.05;50.83;;;19.00;76.70;;;;;;4949353;28;89877;-51
2022/10/26 04:05:32;;;;;;;71.50;50.70;;;19.10;76.60;;;;;;4937978;28;90211;-53
2022/10/26 04:07:59;;;;;;;71.88;51.65;;;19.00;76.80;;;;;;4939297;28;90847;-53
2022/10/26 04:10:26;;;;;;;71.65;50.88;;;19.00;76.80;;;;;;4944758;28;92181;-54
2022/10/26 04:12:53;;;;;;;72.38;50.72;;;19.00;76.80;;;;;;4943911;28;90748;-54
2022/10/26 04:15:19;;;;;;;72.15;51.13;;;19.00;76.80;;;;;;4936980;28;91800;-54
2022/10/26 04:17:45;;;;;;;71.57;50.90;;;19.00;76.80;;;;;;4943519;28;91718;-52
2022/10/26 04:20:11;;;;;;;72.15;50.90;;;19.00;76.80;;;;;;4951837;28;90066;-55
2022/10/26 04:22:37;;;;;;;71.82;51.30;;;19.00;76.80;;;;;;4950605;28;89991;-52
2022/10/26 04:25:04;;;;;;;76.22;51.05;;;19.10;76.80;;;;;;4946943;28;91386;-54
2022/10/26 04:27:30;;;;;;;74.45;50.85;;;19.10;76.80;;;;;;4950045;28;89287;-52
2022/10/26 04:29:56;;;;;;;72.97;51.22;;;19.00;76.70;;;;;;4934743;28;91047;-54
2022/10/26 04:32:21;;;;;;;73.82;51.33;;;19.00;76.80;;;;;;4943840;28;97011;-54
2022/10/26 04:34:47;;;;;;;71.53;51.15;;;19.00;76.80;;;;;;4941464;28;96305;-53
2022/10/26 04:37:13;;;;;;;72.28;51.13;;;19.00;76.70;;;;;;4956612;28;90894;-53
2022/10/26 04:39:38;;;;;;;71.32;51.10;;;19.00;76.80;;;;;;4957070;28;90007;-54
2022/10/26 04:42:04;;;;;;;72.18;50.92;;;19.00;76.70;;;;;;4934206;28;90774;-53
2022/10/26 04:44:29;;;;;;;73.15;51.05;;;19.00;76.80;;;;;;4942427;28;90535;-53
2022/10/26 04:46:55;;;;;;;74.90;51.15;;;19.00;76.80;;;;;;4945079;28;90170;-53
2022/10/26 04:49:21;;;;;;;73.47;51.00;;;19.00;76.80;;;;;;4953705;28;89613;-54
2022/10/26 04:51:46;;;;;;;72.93;51.00;;;19.00;76.70;;;;;;4944012;28;90183;-53
2022/10/26 04:54:12;;;;;;;74.80;51.08;;;19.00;76.80;;;;;;4934528;28;90225;-53
2022/10/26 04:56:37;;;;;;;71.50;50.65;;;19.00;76.70;;;;;;4950212;28;91123;-53
2022/10/26 04:59:03;;;;;;;72.70;51.00;;;19.00;77.50;;;;;;4939025;28;91025;-54
2022/10/26 05:01:30;;;;;;;72.63;51.15;;;19.00;76.80;;;;;;4938083;28;91862;-53
2022/10/26 05:03:56;;;;;;;73.35;50.90;;;19.00;76.80;;;;;;4946493;28;90098;-54
2022/10/26 05:06:22;;;;;;;71.85;50.67;;;19.00;76.80;;;;;;4934391;28;93718;-54
2022/10/26 05:08:48;;;;;;;73.15;51.05;;;19.00;76.80;;;;;;4951126;28;90028;-54
2022/10/26 05:11:13;;;;;;;72.45;50.97;;;19.00;76.80;;;;;;4945123;28;95722;-52
2022/10/26 05:13:39;;;;;;;71.57;50.72;;;19.00;76.80;;;;;;4942744;28;91852;-53
2022/10/26 05:16:06;;;;;;;71.18;50.83;;;19.00;76.90;;;;;;4943324;28;90249;-54
2022/10/26 05:18:31;;;;;;;72.78;51.33;;;19.00;76.90;;;;;;4946699;28;89689;-55
2022/10/26 05:20:57;;;;;;;76.55;50.90;;;19.00;77.00;;;;;;4954721;28;93250;-52
2022/10/26 05:23:23;;;;;;;73.28;50.85;;;19.00;76.90;;;;;;4932088;28;93197;-52
2022/10/26 05:25:50;;;;;;;74.80;51.45;;;19.00;76.90;;;;;;4942616;28;91123;-53
2022/10/26 05:28:16;;;;;;;73.30;50.83;;;19.00;77.80;;;;;;4953513;28;90071;-51
2022/10/26 05:30:43;;;;;;;75.15;51.05;;;19.00;77.10;;;;;;4951167;28;90126;-55
2022/10/26 05:33:10;;;;;;;72.15;51.00;;;19.00;77.10;;;;;;4950863;28;90748;-54
2022/10/26 05:35:37;;;;;;;78.82;50.95;;;19.00;77.10;;;;;;4942867;28;96170;-54
2022/10/26 05:38:10;;;;;;;74.97;51.45;;;19.00;77.00;;;;;;4946047;28;90338;-55
2022/10/26 05:40:36;;;;;;;73.28;51.25;;;18.90;77.20;;;;;;4952864;28;89733;-53
2022/10/26 05:43:01;;;;;;;76.85;51.53;;;19.00;77.20;;;;;;4940074;28;90678;-52
2022/10/26 05:45:27;;;;;;;76.10;51.35;;;19.00;77.10;;;;;;4952628;28;90267;-54
2022/10/26 05:47:53;;;;;;;75.03;51.00;;;19.00;77.10;;;;;;4946927;28;90804;-54
2022/10/26 05:50:19;;;;;;;73.18;50.85;;;19.00;77.20;;;;;;4950475;28;89645;-53
2022/10/26 05:52:46;;;;;;;74.40;51.50;;;19.00;77.20;;;;;;4939977;28;91238;-54
2022/10/26 05:55:15;;;;;;;73.15;51.35;;;19.00;77.20;;;;;;4937677;28;91014;-52
2022/10/26 05:57:41;;;;;;;73.82;51.67;;;19.00;77.30;;;;;;4944740;28;90583;-54
2022/10/26 06:00:10;;;;;;;74.78;51.30;;;19.00;77.20;;;;;;4945613;28;89918;-54
2022/10/26 06:03:06;;;;;;;75.10;51.35;;;19.00;77.20;;;;;;4941771;28;90206;-55
2022/10/26 06:05:44;;;;;;;71.95;51.10;;;18.90;77.20;;;;;;4953365;28;89698;-55
2022/10/26 06:08:10;;;;;;;75.07;51.28;;;18.90;77.20;;;;;;4940478;28;90759;-53
2022/10/26 06:10:37;;;;;;;73.97;51.40;;;19.00;77.20;;;;;;4947429;28;90002;-54
2022/10/26 06:13:03;;;;;;;72.28;51.33;;;18.90;77.20;;;;;;4953798;28;91240;-54
2022/10/26 06:15:31;;;;;;;76.20;51.28;;;18.90;77.20;;;;;;4947799;28;91417;-53
2022/10/26 06:18:27;;;;;;;71.28;51.08;;;18.90;77.20;;;;;;4947675;28;89698;-53
2022/10/26 06:21:29;;;;;;;73.55;51.22;;;18.90;77.20;;;;;;4945830;28;89629;-54
2022/10/26 06:24:11;;;;;;;73.38;50.90;;;18.90;77.20;;;;;;4948119;28;91696;-51
2022/10/26 06:26:49;;;;;;;73.03;51.33;;;18.90;77.20;;;;;;4946668;28;89933;-52
2022/10/26 06:29:17;;;;;;;73.95;50.97;;;18.90;77.20;;;;;;4947502;28;89591;-54
2022/10/26 06:31:44;;;;;;;74.50;51.90;;;18.90;77.20;;;;;;4954839;28;90855;-52
2022/10/26 06:34:13;;;;;;;71.10;50.80;;;18.90;77.10;;;;;;4949435;28;90458;-53
2022/10/26 06:36:40;;;;;;;72.18;51.17;;;18.90;77.20;;;;;;4943790;28;89873;-53
2022/10/26 06:39:09;;;;;;;72.75;51.30;;;18.90;77.20;;;;;;4947324;28;91300;-51
2022/10/26 06:41:35;;;;;;;71.90;51.22;;;18.90;77.10;;;;;;4949406;28;90990;-48
2022/10/26 06:44:02;;;;;;;72.70;51.17;;;18.90;77.00;;;;;;4919908;28;91279;-52
2022/10/26 06:47:09;;;;;;;72.72;51.25;;;18.90;77.20;;;;;;4911440;28;91850;-53
2022/10/26 06:49:58;;;;;;;72.47;50.83;;;18.90;77.20;;;;;;4947437;28;94685;-53
2022/10/26 06:52:41;;;;;;;73.45;50.92;;;18.90;77.10;;;;;;4949777;28;90279;-51
2022/10/26 06:55:13;;;;;;;71.88;51.08;;;18.90;77.20;;;;;;4939083;28;90841;-52
2022/10/26 06:57:41;;;;;;;73.03;50.88;;;18.90;77.10;;;;;;4946876;28;89731;-52
2022/10/26 07:00:16;;;;;;;74.13;51.75;;;18.90;77.10;;;;;;4952660;28;89849;-55
2022/10/26 07:02:41;;;;;;;71.55;51.05;;;18.80;77.10;;;;;;4954392;28;89972;-50
2022/10/26 07:05:11;;;;;;;73.40;51.00;;;18.80;77.10;;;;;;4951265;28;91023;-53
2022/10/26 07:07:41;;;;;;;72.88;51.35;;;18.90;77.20;;;;;;4949859;28;89887;-52
2022/10/26 07:10:07;;;;;;;72.20;50.92;;;18.80;77.20;;;;;;4943822;28;90195;-53
2022/10/26 07:12:33;;;;;;;73.78;51.35;;;18.90;78.10;;;;;;4954863;28;90322;-53
2022/10/26 07:14:59;;;;;;;74.05;51.08;;;18.80;77.10;;;;;;4942327;28;95974;-53
2022/10/26 07:17:27;;;;;;;72.03;51.13;;;18.80;77.20;;;;;;4938680;28;89978;-54
2022/10/26 07:19:53;;;;;;;71.75;50.80;;;18.80;77.20;;;;;;4945531;28;95112;-50
2022/10/26 07:22:19;;;;;;;71.72;51.03;;;18.80;77.20;;;;;;4953174;28;89705;-50
2022/10/26 07:24:48;;;;;;;71.60;51.15;;;18.80;77.20;;;;;;4947915;28;90856;-53
2022/10/26 07:27:14;;;;;;;71.75;51.00;;;18.80;77.20;;;;;;4954474;28;90158;-54
2022/10/26 07:29:40;;;;;;;74.82;51.33;;;18.80;77.10;;;;;;4944968;28;90622;-51
2022/10/26 07:32:06;;;;;;;72.68;50.95;;;18.80;77.20;;;;;;4953362;28;90387;-56
2022/10/26 07:34:31;;;;;;;72.00;51.03;;;18.80;77.20;;;;;;4944536;28;97080;-52
2022/10/26 07:36:58;;;;;;;71.22;51.05;;;18.80;77.20;;;;;;4947217;28;90995;-55
2022/10/26 07:39:24;;;;;;;72.22;50.97;;;18.80;77.30;;;;;;4951262;28;89935;-55
2022/10/26 07:41:50;;;;;;;72.85;51.05;;;18.80;77.30;;;;;;4945643;28;91096;-53
2022/10/26 07:44:16;;;;;;;71.32;50.95;;;18.80;77.30;;;;;;4952164;28;90225;-52
2022/10/26 07:46:41;;;;;;;73.07;51.10;;;18.80;77.20;;;;;;4953488;28;91550;-54
2022/10/26 07:49:07;;;;;;;72.22;50.65;;;18.90;77.20;;;;;;4951252;28;90001;-54
2022/10/26 07:51:32;;;;;;;72.65;51.30;;;18.90;77.30;;;;;;4952391;28;91223;-54
2022/10/26 07:53:58;;;;;;;72.00;51.33;;;18.80;77.20;;;;;;4953050;28;92158;-53
2022/10/26 07:56:24;;;;;;;70.80;50.58;;;18.90;77.30;;;;;;4954761;28;89850;-53
2022/10/26 07:58:52;;;;;;;71.93;51.17;;;18.90;77.30;;;;;;4950550;28;89810;-54
2022/10/26 08:01:18;;;;;;;71.70;50.95;;;18.80;77.20;;;;;;4954353;28;90327;-55
2022/10/26 08:03:44;;;;;;;71.45;50.75;;;18.90;77.40;;;;;;4952919;28;93106;-54
2022/10/26 08:06:10;;;;;;;72.28;50.85;;;18.90;77.40;;;;;;4955234;28;90872;-53
2022/10/26 08:08:36;;;;;;;71.65;51.05;;;18.90;77.40;;;;;;4956813;28;93570;-52
2022/10/26 08:11:02;;;;;;;72.22;51.28;;;18.90;77.30;;;;;;4952269;28;89542;-55
2022/10/26 08:13:28;;;;;;;71.63;51.33;;;18.90;77.50;;;;;;4958716;28;90414;-53
2022/10/26 08:16:01;;;;;;;72.95;51.08;;;18.90;77.50;;;;;;4956894;28;91447;-54
2022/10/26 08:18:27;;;;;;;73.78;51.05;;;18.90;77.50;;;;;;4952286;28;90619;-55
2022/10/26 08:20:53;;;;;;;73.47;51.25;;;18.90;77.50;;;;;;4953367;28;90514;-53
2022/10/26 08:23:18;;;;;;;73.30;51.15;;;18.90;77.60;;;;;;4951437;28;90293;-53
2022/10/26 08:25:44;;;;;;;72.07;50.63;;;18.90;77.50;;;;;;4949776;28;89851;-54
2022/10/26 08:28:10;;;;;;;88.13;55.17;;;18.90;77.50;;;;;;4950206;28;90024;-53
2022/10/26 08:30:35;;;;;;;83.43;54.33;;;19.00;77.60;;;;;;4943597;28;94741;-54
2022/10/26 08:33:05;;;;;;;80.97;54.10;;;19.00;77.60;;;;;;4954205;28;94268;-55
2022/10/26 08:35:31;;;;;;;82.70;53.47;;;19.00;77.60;;;;;;4950159;28;90162;-54
2022/10/26 08:37:57;;;;;;;80.53;53.75;;;19.00;77.60;;;;;;4950095;28;90206;-53
2022/10/26 08:40:29;;;;;;;82.68;54.30;;;19.00;77.70;;;;;;4952780;28;91173;-52
2022/10/26 08:43:24;;;;;;;77.22;53.67;;;19.00;77.60;;;;;;4958367;28;91347;-54
2022/10/26 08:45:58;;;;;;;80.05;54.13;;;19.00;77.60;;;;;;4944460;28;91478;-55
2022/10/26 08:48:29;;;;;;;82.07;53.63;;;19.00;77.60;;;;;;4961227;28;89986;-55
2022/10/26 08:51:04;;;;;;;79.22;53.45;;;19.00;77.60;;;;;;4954784;28;90290;-54
2022/10/26 08:53:41;;;;;;;83.15;53.95;;;19.00;77.60;;;;;;4947730;28;92306;-54
2022/10/26 08:56:36;;;;;;;81.10;53.60;;;19.10;77.70;;;;;;4944596;28;91324;-52
2022/10/26 08:59:12;;;;;;;79.05;53.15;;;19.00;77.60;;;;;;4950981;28;90047;-53
2022/10/26 09:01:38;;;;;;;80.57;52.97;;;19.10;77.60;;;;;;4951537;28;89015;-54
2022/10/26 09:04:10;;;;;;;75.78;53.05;;;19.10;77.70;;;;;;4956625;28;91228;-54
2022/10/26 09:06:58;;;;;;;78.13;52.95;;;19.10;77.70;;;;;;4957767;28;90683;-58
2022/10/26 09:09:30;;;;;;;75.40;53.00;;;19.10;77.70;;;;;;4949063;28;93661;-55
2022/10/26 09:12:12;;;;;;;81.07;52.72;;;19.10;77.60;;;;;;4945219;28;89667;-54
2022/10/26 09:15:10;;;;;;;76.15;52.50;;;19.10;77.60;;;;;;4951519;28;91221;-52
2022/10/26 09:17:45;;;;;;;78.05;53.03;;;19.10;77.70;;;;;;4941785;28;89774;-53
2022/10/26 09:20:31;;;;;;;77.10;53.00;;;19.10;77.70;;;;;;4953890;28;90034;-50
2022/10/26 09:23:35;;;;;;;77.45;52.67;;;19.20;77.70;;;;;;4949082;28;89922;-54
2022/10/26 09:26:04;;;;;;;76.07;53.03;;;19.20;77.70;;;;;;4952365;28;90761;-53
2022/10/26 09:28:34;;;;;;;78.38;52.72;;;19.20;77.70;;;;;;4954717;28;92442;-54
2022/10/26 09:31:01;;;;;;;77.75;52.85;;;19.20;77.80;;;;;;4959811;28;90089;-54
2022/10/26 09:33:29;;;;;;;75.70;52.35;;;19.20;77.70;;;;;;4960938;28;90127;-52
2022/10/26 09:36:03;;;;;;;76.22;52.60;;;19.20;77.80;;;;;;4950113;28;91867;-53
2022/10/26 09:38:52;;;;;;;79.70;53.05;;;19.20;77.70;;;;;;4954975;28;89628;-55
2022/10/26 09:41:42;;;;;;;75.50;52.35;;;19.20;77.80;;;;;;4956643;28;92891;-54
2022/10/26 09:44:26;;;;;;;76.68;52.47;;;19.20;77.70;;;;;;4951379;28;90513;-54
2022/10/26 09:47:13;;;;;;;75.22;52.55;;;19.20;77.70;;;;;;4953374;28;93805;-55
2022/10/26 09:49:49;;;;;;;77.57;52.90;;;19.30;77.80;;;;;;4955361;28;89948;-51
2022/10/26 09:52:15;;;;;;;76.47;52.83;;;19.30;77.80;;;;;;4955556;28;89790;-50
2022/10/26 09:54:42;;;;;;;77.32;52.63;;;19.30;77.80;;;;;;4961840;28;88923;-54
2022/10/26 09:57:11;;;;;;;77.63;52.42;;;19.30;77.80;;;;;;4960163;28;93198;-53
2022/10/26 09:59:39;;;;;;;76.82;52.45;;;19.30;77.80;;;;;;4962224;28;93422;-51
2022/10/26 10:02:34;;;;;;;75.05;52.70;;;19.30;77.80;;;;;;4960011;28;91824;-53
2022/10/26 10:05:00;;;;;;;77.78;52.92;;;19.30;77.80;;;;;;4955976;28;93456;-54
2022/10/26 10:07:27;;;;;;;77.68;52.88;;;19.30;77.80;;;;;;4955053;28;91714;-54
2022/10/26 10:10:16;;;;;;;75.63;52.55;;;19.40;77.80;;;;;;4958049;28;92058;-50
2022/10/26 10:12:42;;;;;;;75.38;52.28;;;19.40;77.90;;;;;;4961073;28;89842;-54
2022/10/26 10:15:24;;;;;;;78.07;52.55;;;19.40;77.80;;;;;;4964400;28;89710;-54
2022/10/26 10:17:51;;;;;;;77.18;52.60;;;19.40;77.80;;;;;;4954864;28;90424;-52
2022/10/26 10:20:22;;;;;;;80.07;52.78;;;19.40;77.90;;;;;;4958151;28;89872;-54
2022/10/26 10:22:59;;;;;;;77.03;52.58;;;19.40;77.90;;;;;;4952540;28;90092;-53
2022/10/26 10:25:37;;;;;;;77.57;52.92;;;19.40;77.90;;;;;;4959756;28;89878;-54
2022/10/26 10:28:22;;;;;;;74.95;52.42;;;19.40;77.90;;;;;;4953851;28;91143;-49
2022/10/26 10:31:03;;;;;;;75.55;52.35;;;19.40;77.80;;;;;;4958186;28;90463;-51
2022/10/26 10:33:36;;;;;;;78.90;52.72;;;19.40;77.90;;;;;;4958947;28;90904;-54
2022/10/26 10:36:04;;;;;;;77.22;52.72;;;19.40;77.90;;;;;;4956811;28;92593;-51
2022/10/26 10:38:42;;;;;;;75.65;52.25;;;19.40;77.90;;;;;;4960815;28;89900;-54
2022/10/26 10:41:35;;;;;;;75.68;52.03;;;19.40;77.90;;;;;;4955944;28;94935;-53
2022/10/26 10:44:35;;;;;;;75.68;52.60;;;19.40;78.00;;;;;;4954938;28;90607;-53
2022/10/26 10:47:06;;;;;;;75.22;52.22;;;19.50;78.00;;;;;;4943481;28;89878;-52
2022/10/26 10:49:32;;;;;;;74.97;52.13;;;19.50;77.90;;;;;;4955988;28;90208;-52
2022/10/26 10:51:59;;;;;;;76.75;52.63;;;19.50;77.90;;;;;;4958290;28;90505;-53
2022/10/26 10:54:38;;;;;;;76.53;52.85;;;19.50;77.90;;;;;;4952189;28;92483;-53
2022/10/26 10:57:26;;;;;;;78.95;52.63;;;19.50;77.90;;;;;;4955006;28;91746;-50
2022/10/26 11:00:03;;;;;;;77.20;52.78;;;19.50;77.90;;;;;;4957753;28;90147;-52
2022/10/26 11:02:53;;;;;;;75.60;52.20;;;19.60;78.00;;;;;;4952844;28;90455;-53
2022/10/26 11:05:42;;;;;;;75.40;52.50;;;19.60;78.00;;;;;;4958157;28;90348;-52
2022/10/26 11:08:12;;;;;;;77.50;52.63;;;19.60;78.10;;;;;;4960071;28;89676;-55
2022/10/26 11:10:43;;;;;;;76.63;52.67;;;19.60;78.00;;;;;;4960294;28;90427;-52
2022/10/26 11:13:42;;;;;;;76.17;52.70;;;19.60;77.90;;;;;;4964805;28;89975;-50
2022/10/26 11:16:15;;;;;;;76.57;52.10;;;19.70;77.80;;;;;;4964137;28;91121;-52
2022/10/26 11:18:52;;;;;;;75.30;52.70;;;19.70;77.70;;;;;;4959483;28;89892;-50
2022/10/26 11:21:30;;;;;;;75.95;51.95;;;19.70;77.70;;;;;;4958118;28;92416;-48
2022/10/26 11:24:26;;;;;;;76.00;52.65;;;19.70;77.60;;;;;;4956220;28;90490;-55
2022/10/26 11:27:02;;;;;;;76.50;52.55;;;19.70;77.70;;;;;;4956114;28;90435;-53
2022/10/26 11:29:50;;;;;;;77.07;52.63;;;19.80;77.70;;;;;;4953813;28;90028;-52
2022/10/26 11:32:24;;;;;;;76.28;52.55;;;19.80;77.70;;;;;;4956172;28;91787;-50
2022/10/26 11:35:08;;;;;;;79.75;52.72;;;19.80;77.70;;;;;;4955214;28;90982;-52
2022/10/26 11:37:40;;;;;;;82.07;52.70;;;19.80;77.70;;;;;;4962932;28;91777;-52
2022/10/26 11:40:21;;;;;;;76.05;52.15;;;19.90;77.80;;;;;;4960767;28;88813;-49
2022/10/26 11:43:17;;;;;;;75.22;52.53;;;19.90;77.70;;;;;;4961097;28;90903;-54
2022/10/26 11:45:47;;;;;;;76.22;52.65;;;19.90;77.70;;;;;;4956002;28;90893;-51
2022/10/26 11:48:22;;;;;;;75.80;52.25;;;19.90;77.60;;;;;;4959605;28;90887;-50
2022/10/26 11:50:56;;;;;;;75.35;52.50;;;19.90;77.60;;;;;;4953869;28;91086;-51
2022/10/26 11:53:38;;;;;;;77.45;52.53;;;19.90;77.60;;;;;;4950643;28;90793;-53
2022/10/26 11:56:11;;;;;;;75.65;52.22;;;20.00;77.60;;;;;;4959893;28;91370;-54
2022/10/26 11:58:37;;;;;;;78.00;52.50;;;19.90;77.50;;;;;;4960780;28;89823;-54
2022/10/26 12:01:08;;;;;;;77.43;52.47;;;20.00;77.50;;;;;;4962380;28;90039;-52
2022/10/26 12:03:44;;;;;;;;;;;20.00;77.50;;;;;;4956021;28;91800;-53
2022/10/26 12:06:11;;;;;;;75.47;52.15;;;20.00;77.40;;;;;;4959427;28;89540;-53
2022/10/26 12:08:49;;;;;;;77.95;52.05;;;20.00;77.40;;;;;;4963092;28;90041;-51
2022/10/26 12:11:36;;;;;;;74.70;52.35;;;20.00;77.40;;;;;;4959167;28;89860;-49
2022/10/26 12:14:29;;;;;;;77.07;52.15;;;20.00;77.40;;;;;;4956074;28;90792;-52
2022/10/26 12:17:38;;;;;;;77.97;52.10;;;20.10;77.40;;;;;;4959293;28;89891;-53
2022/10/26 12:20:12;;;;;;;75.78;52.25;;;20.10;77.40;;;;;;4956137;28;89719;-52
2022/10/26 12:22:42;;;;;;;75.60;52.42;;;20.10;77.40;;;;;;4966092;28;90149;-54
2022/10/26 12:25:14;;;;;;;75.70;52.10;;;20.10;77.40;;;;;;4957051;28;92066;-53
2022/10/26 12:27:39;;;;;;;76.50;52.50;;;20.10;77.30;;;;;;4959004;28;91213;-52
2022/10/26 12:30:14;;;;;;;74.72;52.20;;;20.10;77.30;;;;;;4955426;28;89878;-53
2022/10/26 12:32:40;;;;;;;77.18;52.25;;;20.10;77.30;;;;;;4956650;28;89698;-53
2022/10/26 12:35:38;;;;;;;77.30;52.05;;;20.10;77.20;;;;;;4955649;28;90736;-52
2022/10/26 12:38:22;;;;;;;76.47;52.47;;;20.10;77.20;;;;;;4956238;28;89767;-53
2022/10/26 12:41:05;;;;;;;77.82;52.45;;;20.10;77.30;;;;;;4958218;28;93700;-53
2022/10/26 12:43:30;;;;;;;75.70;52.08;;;20.10;77.30;;;;;;4963903;28;89965;-55
2022/10/26 12:46:11;;;;;;;76.68;52.47;;;20.20;77.30;;;;;;4955092;28;89437;-50
2022/10/26 12:48:40;;;;;;;77.60;52.37;;;20.10;77.30;;;;;;4952778;28;90274;-53
2022/10/26 12:51:21;;;;;;;75.53;52.13;;;20.20;77.40;;;;;;4956585;28;90051;-50
2022/10/26 12:54:31;;;;;;;76.47;52.47;;;20.20;77.30;;;;;;4959401;28;90014;-51
2022/10/26 12:57:21;;;;;;;75.10;51.92;;;20.20;77.30;;;;;;4957196;28;90232;-49